sensor_id;sensor_type;location;lat;lon;timestamp;temperature;humidity
18932;DHT22;9598;50.954;3.112;2023-07-02T00:00:54;18.50;99.90
18932;DHT22;9598;50.954;3.112;2023-07-02T00:05:58;18.50;99.90
18932;DHT22;9598;50.954;3.112;2023-07-02T00:11:00;18.50;99.90
18932;DHT22;9598;50.954;3.112;2023-07-02T00:16:02;18.50;99.90
18932;DHT22;9598;50.954;3.112;2023-07-02T00:21:06;18.50;99.90
18932;DHT22;9598;50.954;3.112;2023-07-02T00:26:08;18.50;99.90
18932;DHT22;9598;50.954;3.112;2023-07-02T00:31:10;18.50;99.90
18932;DHT22;9598;50.954;3.112;2023-07-02T00:36:14;18.40;99.90
18932;DHT22;9598;50.954;3.112;2023-07-02T00:41:16;18.40;99.90
18932;DHT22;9598;50.954;3.112;2023-07-02T00:46:19;18.40;99.90
18932;DHT22;9598;50.954;3.112;2023-07-02T00:51:24;18.40;99.90
18932;DHT22;9598;50.954;3.112;2023-07-02T00:56:26;18.30;99.90
18932;DHT22;9598;50.954;3.112;2023-07-02T01:01:29;18.30;99.90
18932;DHT22;9598;50.954;3.112;2023-07-02T01:06:36;18.40;99.90
18932;DHT22;9598;50.954;3.112;2023-07-02T01:11:43;18.40;99.90
18932;DHT22;9598;50.954;3.112;2023-07-02T01:16:47;18.30;99.90
18932;DHT22;9598;50.954;3.112;2023-07-02T01:21:52;18.30;99.90
18932;DHT22;9598;50.954;3.112;2023-07-02T01:26:55;18.30;99.90
18932;DHT22;9598;50.954;3.112;2023-07-02T01:31:57;18.30;99.90
18932;DHT22;9598;50.954;3.112;2023-07-02T01:37:01;18.30;99.90
18932;DHT22;9598;50.954;3.112;2023-07-02T01:42:10;18.30;99.90
18932;DHT22;9598;50.954;3.112;2023-07-02T01:47:13;18.20;99.90
18932;DHT22;9598;50.954;3.112;2023-07-02T01:52:17;18.20;99.90
18932;DHT22;9598;50.954;3.112;2023-07-02T01:57:19;18.20;99.90
18932;DHT22;9598;50.954;3.112;2023-07-02T02:02:22;18.20;99.90
18932;DHT22;9598;50.954;3.112;2023-07-02T02:07:25;18.20;99.90
18932;DHT22;9598;50.954;3.112;2023-07-02T02:12:27;18.10;99.90
18932;DHT22;9598;50.954;3.112;2023-07-02T02:17:31;18.00;99.90
18932;DHT22;9598;50.954;3.112;2023-07-02T02:22:36;18.00;99.90
18932;DHT22;9598;50.954;3.112;2023-07-02T02:27:38;18.00;99.90
18932;DHT22;9598;50.954;3.112;2023-07-02T02:32:40;18.00;99.90
18932;DHT22;9598;50.954;3.112;2023-07-02T02:37:46;18.00;99.90
18932;DHT22;9598;50.954;3.112;2023-07-02T02:42:48;18.00;99.90
18932;DHT22;9598;50.954;3.112;2023-07-02T02:47:50;17.90;99.90
18932;DHT22;9598;50.954;3.112;2023-07-02T02:52:54;17.90;99.90
18932;DHT22;9598;50.954;3.112;2023-07-02T02:57:56;18.00;99.90
18932;DHT22;9598;50.954;3.112;2023-07-02T03:02:58;18.00;99.90
18932;DHT22;9598;50.954;3.112;2023-07-02T03:08:02;18.00;99.90
18932;DHT22;9598;50.954;3.112;2023-07-02T03:13:04;18.00;99.90
18932;DHT22;9598;50.954;3.112;2023-07-02T03:18:06;18.00;99.90
18932;DHT22;9598;50.954;3.112;2023-07-02T03:23:09;18.00;99.90
18932;DHT22;9598;50.954;3.112;2023-07-02T03:28:11;18.00;99.90
18932;DHT22;9598;50.954;3.112;2023-07-02T03:33:13;18.00;99.90
18932;DHT22;9598;50.954;3.112;2023-07-02T03:38:17;18.00;99.90
18932;DHT22;9598;50.954;3.112;2023-07-02T03:43:20;18.00;99.90
18932;DHT22;9598;50.954;3.112;2023-07-02T03:48:22;18.00;99.90
18932;DHT22;9598;50.954;3.112;2023-07-02T03:53:26;18.00;99.90
18932;DHT22;9598;50.954;3.112;2023-07-02T03:58:28;18.00;99.90
18932;DHT22;9598;50.954;3.112;2023-07-02T04:03:30;17.90;99.90
18932;DHT22;9598;50.954;3.112;2023-07-02T04:08:34;17.90;99.90
18932;DHT22;9598;50.954;3.112;2023-07-02T04:13:36;17.90;99.90
18932;DHT22;9598;50.954;3.112;2023-07-02T04:18:38;17.90;99.90
18932;DHT22;9598;50.954;3.112;2023-07-02T04:23:41;17.90;99.90
18932;DHT22;9598;50.954;3.112;2023-07-02T04:28:43;17.90;99.90
18932;DHT22;9598;50.954;3.112;2023-07-02T04:33:45;17.90;99.90
18932;DHT22;9598;50.954;3.112;2023-07-02T04:38:49;17.90;99.90
18932;DHT22;9598;50.954;3.112;2023-07-02T04:43:51;17.80;99.90
18932;DHT22;9598;50.954;3.112;2023-07-02T04:48:53;17.80;99.90
18932;DHT22;9598;50.954;3.112;2023-07-02T04:53:56;17.80;99.90
18932;DHT22;9598;50.954;3.112;2023-07-02T04:58:58;17.80;99.90
18932;DHT22;9598;50.954;3.112;2023-07-02T05:04:00;17.90;99.90
18932;DHT22;9598;50.954;3.112;2023-07-02T05:09:04;17.90;99.90
18932;DHT22;9598;50.954;3.112;2023-07-02T05:14:06;18.00;99.90
18932;DHT22;9598;50.954;3.112;2023-07-02T05:19:08;18.00;99.90
18932;DHT22;9598;50.954;3.112;2023-07-02T05:24:11;18.00;99.90
18932;DHT22;9598;50.954;3.112;2023-07-02T05:29:14;18.00;99.90
18932;DHT22;9598;50.954;3.112;2023-07-02T05:34:16;18.10;99.90
18932;DHT22;9598;50.954;3.112;2023-07-02T05:39:19;18.10;99.90
18932;DHT22;9598;50.954;3.112;2023-07-02T05:44:22;18.20;99.90
18932;DHT22;9598;50.954;3.112;2023-07-02T05:49:24;18.20;99.90
18932;DHT22;9598;50.954;3.112;2023-07-02T05:54:28;18.20;99.90
18932;DHT22;9598;50.954;3.112;2023-07-02T05:59:30;18.20;99.90
18932;DHT22;9598;50.954;3.112;2023-07-02T06:04:32;18.20;99.90
18932;DHT22;9598;50.954;3.112;2023-07-02T06:09:35;18.20;99.90
18932;DHT22;9598;50.954;3.112;2023-07-02T06:14:37;18.20;99.90
18932;DHT22;9598;50.954;3.112;2023-07-02T06:19:39;18.30;99.90
18932;DHT22;9598;50.954;3.112;2023-07-02T06:24:43;18.30;99.90
18932;DHT22;9598;50.954;3.112;2023-07-02T06:29:45;18.30;99.90
18932;DHT22;9598;50.954;3.112;2023-07-02T06:34:47;18.30;99.90
18932;DHT22;9598;50.954;3.112;2023-07-02T06:39:50;18.20;99.90
18932;DHT22;9598;50.954;3.112;2023-07-02T06:44:53;18.20;99.90
18932;DHT22;9598;50.954;3.112;2023-07-02T06:49:55;18.20;99.90
18932;DHT22;9598;50.954;3.112;2023-07-02T06:55:00;18.30;99.90
18932;DHT22;9598;50.954;3.112;2023-07-02T07:00:02;18.30;99.90
18932;DHT22;9598;50.954;3.112;2023-07-02T07:05:05;18.40;99.90
18932;DHT22;9598;50.954;3.112;2023-07-02T07:10:09;18.40;99.90
18932;DHT22;9598;50.954;3.112;2023-07-02T07:15:11;18.60;99.90
18932;DHT22;9598;50.954;3.112;2023-07-02T07:20:13;18.70;99.90
18932;DHT22;9598;50.954;3.112;2023-07-02T07:25:17;18.70;99.90
18932;DHT22;9598;50.954;3.112;2023-07-02T07:30:19;18.80;99.90
18932;DHT22;9598;50.954;3.112;2023-07-02T07:35:23;18.90;99.90
18932;DHT22;9598;50.954;3.112;2023-07-02T07:40:26;19.00;99.90
18932;DHT22;9598;50.954;3.112;2023-07-02T07:45:28;19.10;99.90
18932;DHT22;9598;50.954;3.112;2023-07-02T07:50:30;19.10;99.90
18932;DHT22;9598;50.954;3.112;2023-07-02T07:55:34;19.20;99.90
18932;DHT22;9598;50.954;3.112;2023-07-02T08:00:36;19.30;99.90
18932;DHT22;9598;50.954;3.112;2023-07-02T08:05:38;19.40;99.90
18932;DHT22;9598;50.954;3.112;2023-07-02T08:10:41;19.40;99.90
18932;DHT22;9598;50.954;3.112;2023-07-02T08:15:43;19.50;99.90
18932;DHT22;9598;50.954;3.112;2023-07-02T08:20:45;19.70;99.90
18932;DHT22;9598;50.954;3.112;2023-07-02T08:25:49;19.80;99.90
18932;DHT22;9598;50.954;3.112;2023-07-02T08:30:52;20.00;99.90
18932;DHT22;9598;50.954;3.112;2023-07-02T08:35:54;20.10;99.90
18932;DHT22;9598;50.954;3.112;2023-07-02T08:40:57;20.10;99.90
18932;DHT22;9598;50.954;3.112;2023-07-02T08:45:59;20.10;99.90
18932;DHT22;9598;50.954;3.112;2023-07-02T08:51:03;20.40;99.90
18932;DHT22;9598;50.954;3.112;2023-07-02T08:56:06;20.50;99.90
18932;DHT22;9598;50.954;3.112;2023-07-02T09:01:09;20.50;99.90
18932;DHT22;9598;50.954;3.112;2023-07-02T09:06:12;20.50;99.90
18932;DHT22;9598;50.954;3.112;2023-07-02T09:11:16;20.40;99.90
18932;DHT22;9598;50.954;3.112;2023-07-02T09:16:23;20.30;99.90
18932;DHT22;9598;50.954;3.112;2023-07-02T09:21:26;20.40;99.90
18932;DHT22;9598;50.954;3.112;2023-07-02T09:26:30;20.60;99.90
18932;DHT22;9598;50.954;3.112;2023-07-02T09:31:43;20.80;99.90
18932;DHT22;9598;50.954;3.112;2023-07-02T09:36:45;20.70;99.90
18932;DHT22;9598;50.954;3.112;2023-07-02T09:41:50;20.70;99.90
18932;DHT22;9598;50.954;3.112;2023-07-02T09:47:00;20.50;99.90
18932;DHT22;9598;50.954;3.112;2023-07-02T09:52:06;20.60;99.90
18932;DHT22;9598;50.954;3.112;2023-07-02T09:57:10;20.90;99.90
18932;DHT22;9598;50.954;3.112;2023-07-02T10:02:13;20.90;99.90
18932;DHT22;9598;50.954;3.112;2023-07-02T10:07:26;21.00;99.90
18932;DHT22;9598;50.954;3.112;2023-07-02T10:12:30;21.00;99.90
18932;DHT22;9598;50.954;3.112;2023-07-02T10:17:34;21.40;99.90
18932;DHT22;9598;50.954;3.112;2023-07-02T10:22:43;21.60;99.90
18932;DHT22;9598;50.954;3.112;2023-07-02T10:27:47;21.50;99.90
18932;DHT22;9598;50.954;3.112;2023-07-02T10:32:49;21.70;99.90
18932;DHT22;9598;50.954;3.112;2023-07-02T10:37:51;21.90;99.90
18932;DHT22;9598;50.954;3.112;2023-07-02T10:42:56;21.90;99.90
18932;DHT22;9598;50.954;3.112;2023-07-02T10:47:58;22.00;99.90
18932;DHT22;9598;50.954;3.112;2023-07-02T10:53:00;22.00;99.90
18932;DHT22;9598;50.954;3.112;2023-07-02T10:58:06;21.90;99.90
18932;DHT22;9598;50.954;3.112;2023-07-02T11:03:16;22.10;99.90
18932;DHT22;9598;50.954;3.112;2023-07-02T11:08:19;22.10;99.90
18932;DHT22;9598;50.954;3.112;2023-07-02T11:13:23;22.10;99.90
18932;DHT22;9598;50.954;3.112;2023-07-02T11:18:30;22.30;99.90
18932;DHT22;9598;50.954;3.112;2023-07-02T11:23:35;22.40;99.90
18932;DHT22;9598;50.954;3.112;2023-07-02T11:28:48;22.50;99.90
18932;DHT22;9598;50.954;3.112;2023-07-02T11:33:51;22.40;99.90
18932;DHT22;9598;50.954;3.112;2023-07-02T11:38:55;22.40;99.90
18932;DHT22;9598;50.954;3.112;2023-07-02T11:43:58;22.60;99.90
18932;DHT22;9598;50.954;3.112;2023-07-02T11:49:01;22.80;99.90
18932;DHT22;9598;50.954;3.112;2023-07-02T11:54:03;22.90;99.90
18932;DHT22;9598;50.954;3.112;2023-07-02T11:59:07;23.10;99.90
18932;DHT22;9598;50.954;3.112;2023-07-02T12:04:10;23.00;99.90
18932;DHT22;9598;50.954;3.112;2023-07-02T12:09:13;22.90;99.90
18932;DHT22;9598;50.954;3.112;2023-07-02T12:14:17;23.00;99.90
18932;DHT22;9598;50.954;3.112;2023-07-02T12:19:19;23.00;99.90
18932;DHT22;9598;50.954;3.112;2023-07-02T12:24:21;22.90;99.90
18932;DHT22;9598;50.954;3.112;2023-07-02T12:29:24;22.80;99.90
18932;DHT22;9598;50.954;3.112;2023-07-02T12:34:26;22.90;99.90
18932;DHT22;9598;50.954;3.112;2023-07-02T12:39:30;22.90;99.90
18932;DHT22;9598;50.954;3.112;2023-07-02T12:44:33;23.10;99.90
18932;DHT22;9598;50.954;3.112;2023-07-02T12:49:35;23.00;99.90
18932;DHT22;9598;50.954;3.112;2023-07-02T12:54:37;22.90;99.90
18932;DHT22;9598;50.954;3.112;2023-07-02T12:59:41;22.90;99.90
18932;DHT22;9598;50.954;3.112;2023-07-02T13:04:43;22.90;99.90
18932;DHT22;9598;50.954;3.112;2023-07-02T13:09:45;22.70;99.90
18932;DHT22;9598;50.954;3.112;2023-07-02T13:14:48;22.70;99.90
18932;DHT22;9598;50.954;3.112;2023-07-02T13:19:50;22.70;99.90
18932;DHT22;9598;50.954;3.112;2023-07-02T13:24:53;22.90;99.90
18932;DHT22;9598;50.954;3.112;2023-07-02T13:29:57;23.20;99.90
18932;DHT22;9598;50.954;3.112;2023-07-02T13:34:59;23.30;99.90
18932;DHT22;9598;50.954;3.112;2023-07-02T13:40:01;23.00;99.90
18932;DHT22;9598;50.954;3.112;2023-07-02T13:45:07;23.00;99.90
18932;DHT22;9598;50.954;3.112;2023-07-02T13:50:10;23.10;99.90
18932;DHT22;9598;50.954;3.112;2023-07-02T13:55:12;23.00;99.90
18932;DHT22;9598;50.954;3.112;2023-07-02T14:00:16;22.80;99.90
18932;DHT22;9598;50.954;3.112;2023-07-02T14:05:19;22.70;99.90
18932;DHT22;9598;50.954;3.112;2023-07-02T14:10:21;22.80;99.90
18932;DHT22;9598;50.954;3.112;2023-07-02T14:15:25;22.70;99.90
18932;DHT22;9598;50.954;3.112;2023-07-02T14:20:28;22.60;99.90
18932;DHT22;9598;50.954;3.112;2023-07-02T14:25:30;22.60;99.90
18932;DHT22;9598;50.954;3.112;2023-07-02T14:30:33;22.60;99.90
18932;DHT22;9598;50.954;3.112;2023-07-02T14:35:36;22.40;99.90
18932;DHT22;9598;50.954;3.112;2023-07-02T14:40:38;22.50;99.90
18932;DHT22;9598;50.954;3.112;2023-07-02T14:45:47;22.40;99.90
18932;DHT22;9598;50.954;3.112;2023-07-02T14:50:51;22.40;99.90
18932;DHT22;9598;50.954;3.112;2023-07-02T14:55:55;22.40;99.90
18932;DHT22;9598;50.954;3.112;2023-07-02T15:00:58;22.30;99.90
18932;DHT22;9598;50.954;3.112;2023-07-02T15:06:08;22.30;99.90
18932;DHT22;9598;50.954;3.112;2023-07-02T15:11:11;22.40;99.90
18932;DHT22;9598;50.954;3.112;2023-07-02T15:16:16;22.40;99.90
18932;DHT22;9598;50.954;3.112;2023-07-02T15:21:20;22.40;99.90
18932;DHT22;9598;50.954;3.112;2023-07-02T15:26:24;22.30;99.90
18932;DHT22;9598;50.954;3.112;2023-07-02T15:31:27;22.10;99.90
18932;DHT22;9598;50.954;3.112;2023-07-02T15:36:30;22.00;99.90
18932;DHT22;9598;50.954;3.112;2023-07-02T15:41:36;22.00;99.90
18932;DHT22;9598;50.954;3.112;2023-07-02T15:46:41;21.90;99.90
18932;DHT22;9598;50.954;3.112;2023-07-02T15:51:44;21.80;99.90
18932;DHT22;9598;50.954;3.112;2023-07-02T15:56:47;21.70;99.90
18932;DHT22;9598;50.954;3.112;2023-07-02T16:01:51;21.60;99.90
18932;DHT22;9598;50.954;3.112;2023-07-02T16:06:54;21.50;99.90
18932;DHT22;9598;50.954;3.112;2023-07-02T16:11:56;21.70;99.90
18932;DHT22;9598;50.954;3.112;2023-07-02T16:16:59;21.90;99.90
18932;DHT22;9598;50.954;3.112;2023-07-02T16:22:01;21.80;99.90
18932;DHT22;9598;50.954;3.112;2023-07-02T16:27:07;21.70;99.90
18932;DHT22;9598;50.954;3.112;2023-07-02T16:32:13;21.60;99.90
18932;DHT22;9598;50.954;3.112;2023-07-02T16:37:15;21.30;99.90
18932;DHT22;9598;50.954;3.112;2023-07-02T16:42:17;21.30;99.90
18932;DHT22;9598;50.954;3.112;2023-07-02T16:47:20;21.40;99.90
18932;DHT22;9598;50.954;3.112;2023-07-02T16:52:22;21.30;99.90
18932;DHT22;9598;50.954;3.112;2023-07-02T16:57:24;21.20;99.90
18932;DHT22;9598;50.954;3.112;2023-07-02T17:02:28;21.10;99.90
18932;DHT22;9598;50.954;3.112;2023-07-02T17:07:30;21.00;99.90
18932;DHT22;9598;50.954;3.112;2023-07-02T17:12:32;21.00;99.90
18932;DHT22;9598;50.954;3.112;2023-07-02T17:17:35;20.90;99.90
18932;DHT22;9598;50.954;3.112;2023-07-02T17:22:37;20.90;99.90
18932;DHT22;9598;50.954;3.112;2023-07-02T17:27:39;20.70;99.90
18932;DHT22;9598;50.954;3.112;2023-07-02T17:32:43;20.70;99.90
18932;DHT22;9598;50.954;3.112;2023-07-02T17:37:45;20.70;99.90
18932;DHT22;9598;50.954;3.112;2023-07-02T17:42:47;20.70;99.90
18932;DHT22;9598;50.954;3.112;2023-07-02T17:47:50;20.70;99.90
18932;DHT22;9598;50.954;3.112;2023-07-02T17:52:53;20.60;99.90
18932;DHT22;9598;50.954;3.112;2023-07-02T17:57:55;20.50;99.90
18932;DHT22;9598;50.954;3.112;2023-07-02T18:02:59;20.40;99.90
18932;DHT22;9598;50.954;3.112;2023-07-02T18:08:01;20.40;99.90
18932;DHT22;9598;50.954;3.112;2023-07-02T18:13:04;20.50;99.90
18932;DHT22;9598;50.954;3.112;2023-07-02T18:18:08;20.40;99.90
18932;DHT22;9598;50.954;3.112;2023-07-02T18:23:10;20.30;99.90
18932;DHT22;9598;50.954;3.112;2023-07-02T18:28:13;20.20;99.90
18932;DHT22;9598;50.954;3.112;2023-07-02T18:33:17;20.20;99.90
18932;DHT22;9598;50.954;3.112;2023-07-02T18:38:19;20.10;99.90
18932;DHT22;9598;50.954;3.112;2023-07-02T18:43:22;20.00;99.90
18932;DHT22;9598;50.954;3.112;2023-07-02T18:48:25;19.90;99.90
18932;DHT22;9598;50.954;3.112;2023-07-02T18:53:27;19.80;99.90
18932;DHT22;9598;50.954;3.112;2023-07-02T18:58:30;19.70;99.90
18932;DHT22;9598;50.954;3.112;2023-07-02T19:03:34;19.70;99.90
18932;DHT22;9598;50.954;3.112;2023-07-02T19:08:36;19.60;99.90
18932;DHT22;9598;50.954;3.112;2023-07-02T19:13:38;19.50;99.90
18932;DHT22;9598;50.954;3.112;2023-07-02T19:18:42;19.40;99.90
18932;DHT22;9598;50.954;3.112;2023-07-02T19:23:44;19.40;99.90
18932;DHT22;9598;50.954;3.112;2023-07-02T19:28:46;19.40;99.90
18932;DHT22;9598;50.954;3.112;2023-07-02T19:33:50;19.30;99.90
18932;DHT22;9598;50.954;3.112;2023-07-02T19:38:52;19.30;99.90
18932;DHT22;9598;50.954;3.112;2023-07-02T19:43:55;19.20;99.90
18932;DHT22;9598;50.954;3.112;2023-07-02T19:48:58;19.20;99.90
18932;DHT22;9598;50.954;3.112;2023-07-02T19:54:00;19.10;99.90
18932;DHT22;9598;50.954;3.112;2023-07-02T19:59:04;19.10;99.90
18932;DHT22;9598;50.954;3.112;2023-07-02T20:04:15;19.10;99.90
18932;DHT22;9598;50.954;3.112;2023-07-02T20:09:19;19.00;99.90
18932;DHT22;9598;50.954;3.112;2023-07-02T20:14:21;18.80;99.90
18932;DHT22;9598;50.954;3.112;2023-07-02T20:19:25;18.70;99.90
18932;DHT22;9598;50.954;3.112;2023-07-02T20:24:27;18.70;99.90
18932;DHT22;9598;50.954;3.112;2023-07-02T20:29:29;18.60;99.90
18932;DHT22;9598;50.954;3.112;2023-07-02T20:34:33;18.60;99.90
18932;DHT22;9598;50.954;3.112;2023-07-02T20:39:36;18.50;99.90
18932;DHT22;9598;50.954;3.112;2023-07-02T20:44:38;18.50;99.90
18932;DHT22;9598;50.954;3.112;2023-07-02T20:49:42;18.50;99.90
18932;DHT22;9598;50.954;3.112;2023-07-02T20:54:51;18.40;99.90
18932;DHT22;9598;50.954;3.112;2023-07-02T20:59:54;18.40;99.90
18932;DHT22;9598;50.954;3.112;2023-07-02T21:04:57;18.30;99.90
18932;DHT22;9598;50.954;3.112;2023-07-02T21:09:59;18.20;99.90
18932;DHT22;9598;50.954;3.112;2023-07-02T21:15:02;18.20;99.90
18932;DHT22;9598;50.954;3.112;2023-07-02T21:20:06;18.10;99.90
18932;DHT22;9598;50.954;3.112;2023-07-02T21:25:09;18.00;99.90
18932;DHT22;9598;50.954;3.112;2023-07-02T21:30:12;17.90;99.90
18932;DHT22;9598;50.954;3.112;2023-07-02T21:35:15;17.90;99.90
18932;DHT22;9598;50.954;3.112;2023-07-02T21:40:18;17.80;99.90
18932;DHT22;9598;50.954;3.112;2023-07-02T21:45:20;17.80;99.90
18932;DHT22;9598;50.954;3.112;2023-07-02T21:50:23;17.70;99.90
18932;DHT22;9598;50.954;3.112;2023-07-02T21:55:25;17.70;99.90
18932;DHT22;9598;50.954;3.112;2023-07-02T22:00:27;17.60;99.90
18932;DHT22;9598;50.954;3.112;2023-07-02T22:05:31;17.60;99.90
18932;DHT22;9598;50.954;3.112;2023-07-02T22:10:33;17.60;99.90
18932;DHT22;9598;50.954;3.112;2023-07-02T22:15:35;17.60;99.90
18932;DHT22;9598;50.954;3.112;2023-07-02T22:20:39;17.60;99.90
18932;DHT22;9598;50.954;3.112;2023-07-02T22:25:41;17.50;99.90
18932;DHT22;9598;50.954;3.112;2023-07-02T22:30:45;17.50;99.90
18932;DHT22;9598;50.954;3.112;2023-07-02T22:35:48;17.40;99.90
18932;DHT22;9598;50.954;3.112;2023-07-02T22:40:51;17.50;99.90
18932;DHT22;9598;50.954;3.112;2023-07-02T22:45:54;17.40;99.90
18932;DHT22;9598;50.954;3.112;2023-07-02T22:50:58;17.30;99.90
18932;DHT22;9598;50.954;3.112;2023-07-02T22:56:08;17.30;99.90
18932;DHT22;9598;50.954;3.112;2023-07-02T23:01:11;17.30;99.90
18932;DHT22;9598;50.954;3.112;2023-07-02T23:06:18;17.30;99.90
18932;DHT22;9598;50.954;3.112;2023-07-02T23:11:23;17.20;99.90
18932;DHT22;9598;50.954;3.112;2023-07-02T23:16:25;17.20;99.90
18932;DHT22;9598;50.954;3.112;2023-07-02T23:21:29;17.10;99.90
18932;DHT22;9598;50.954;3.112;2023-07-02T23:26:31;17.00;99.90
18932;DHT22;9598;50.954;3.112;2023-07-02T23:31:34;17.00;99.90
18932;DHT22;9598;50.954;3.112;2023-07-02T23:36:38;16.90;99.90
18932;DHT22;9598;50.954;3.112;2023-07-02T23:41:45;16.90;99.90
18932;DHT22;9598;50.954;3.112;2023-07-02T23:46:48;16.90;99.90
18932;DHT22;9598;50.954;3.112;2023-07-02T23:51:52;16.90;99.90
18932;DHT22;9598;50.954;3.112;2023-07-02T23:56:54;16.90;99.90
